sensor_id;sensor_type;location;lat;lon;timestamp;P1;durP1;ratioP1;P2;durP2;ratioP2
67164;SDS011;54093;50.014;19.984;2022-09-30T00:00:10;11.65;;;10.45;;
67164;SDS011;54093;50.014;19.984;2022-09-30T00:09:51;16.23;;;12.63;;
67164;SDS011;54093;50.014;19.984;2022-09-30T00:19:11;18.83;;;13.02;;
67164;SDS011;54093;50.014;19.984;2022-09-30T00:28:33;14.27;;;12.68;;
67164;SDS011;54093;50.014;19.984;2022-09-30T00:37:54;14.25;;;11.95;;
67164;SDS011;54093;50.014;19.984;2022-09-30T00:47:26;12.25;;;11.00;;
67164;SDS011;54093;50.014;19.984;2022-09-30T00:56:54;12.35;;;11.07;;
67164;SDS011;54093;50.014;19.984;2022-09-30T01:06:19;11.43;;;10.27;;
67164;SDS011;54093;50.014;19.984;2022-09-30T01:44:34;20.83;;;11.90;;
67164;SDS011;54093;50.014;19.984;2022-09-30T02:03:58;11.75;;;10.75;;
67164;SDS011;54093;50.014;19.984;2022-09-30T02:13:36;12.77;;;11.47;;
67164;SDS011;54093;50.014;19.984;2022-09-30T02:23:06;13.30;;;11.85;;
67164;SDS011;54093;50.014;19.984;2022-09-30T02:32:30;12.67;;;11.43;;
67164;SDS011;54093;50.014;19.984;2022-09-30T02:41:57;10.45;;;9.00;;
67164;SDS011;54093;50.014;19.984;2022-09-30T02:51:51;10.52;;;9.52;;
67164;SDS011;54093;50.014;19.984;2022-09-30T03:01:35;10.20;;;9.23;;
67164;SDS011;54093;50.014;19.984;2022-09-30T03:11:01;19.73;;;12.93;;
67164;SDS011;54093;50.014;19.984;2022-09-30T03:20:29;18.77;;;12.27;;
67164;SDS011;54093;50.014;19.984;2022-09-30T03:30:01;11.13;;;10.02;;
67164;SDS011;54093;50.014;19.984;2022-09-30T03:39:38;10.63;;;9.48;;
67164;SDS011;54093;50.014;19.984;2022-09-30T03:49:06;10.43;;;8.93;;
67164;SDS011;54093;50.014;19.984;2022-09-30T03:58:30;15.02;;;10.65;;
67164;SDS011;54093;50.014;19.984;2022-09-30T04:07:51;10.73;;;8.63;;
67164;SDS011;54093;50.014;19.984;2022-09-30T04:17:12;10.68;;;9.55;;
67164;SDS011;54093;50.014;19.984;2022-09-30T04:26:33;11.80;;;9.35;;
67164;SDS011;54093;50.014;19.984;2022-09-30T04:35:57;13.10;;;9.18;;
67164;SDS011;54093;50.014;19.984;2022-09-30T04:45:19;16.63;;;13.05;;
67164;SDS011;54093;50.014;19.984;2022-09-30T04:54:41;13.13;;;11.15;;
67164;SDS011;54093;50.014;19.984;2022-09-30T05:04:01;16.30;;;12.90;;
67164;SDS011;54093;50.014;19.984;2022-09-30T05:13:28;13.48;;;10.60;;
67164;SDS011;54093;50.014;19.984;2022-09-30T05:22:54;12.70;;;10.57;;
67164;SDS011;54093;50.014;19.984;2022-09-30T05:32:15;15.13;;;10.73;;
67164;SDS011;54093;50.014;19.984;2022-09-30T05:41:37;16.58;;;10.45;;
67164;SDS011;54093;50.014;19.984;2022-09-30T05:50:58;13.95;;;10.98;;
67164;SDS011;54093;50.014;19.984;2022-09-30T06:00:21;16.85;;;11.82;;
67164;SDS011;54093;50.014;19.984;2022-09-30T06:09:41;22.25;;;12.57;;
67164;SDS011;54093;50.014;19.984;2022-09-30T06:19:02;24.70;;;15.10;;
67164;SDS011;54093;50.014;19.984;2022-09-30T06:28:23;22.92;;;12.80;;
67164;SDS011;54093;50.014;19.984;2022-09-30T06:37:44;21.70;;;12.73;;
67164;SDS011;54093;50.014;19.984;2022-09-30T06:47:05;17.65;;;12.35;;
67164;SDS011;54093;50.014;19.984;2022-09-30T06:56:26;17.98;;;12.18;;
67164;SDS011;54093;50.014;19.984;2022-09-30T07:05:53;20.40;;;11.27;;
67164;SDS011;54093;50.014;19.984;2022-09-30T07:15:17;21.77;;;10.98;;
67164;SDS011;54093;50.014;19.984;2022-09-30T07:24:41;25.33;;;12.55;;
67164;SDS011;54093;50.014;19.984;2022-09-30T07:34:03;18.90;;;11.43;;
67164;SDS011;54093;50.014;19.984;2022-09-30T07:43:27;23.83;;;11.85;;
67164;SDS011;54093;50.014;19.984;2022-09-30T07:52:54;17.25;;;11.23;;
67164;SDS011;54093;50.014;19.984;2022-09-30T08:02:16;17.35;;;10.48;;
67164;SDS011;54093;50.014;19.984;2022-09-30T08:11:38;25.88;;;11.10;;
67164;SDS011;54093;50.014;19.984;2022-09-30T08:21:01;16.45;;;11.70;;
67164;SDS011;54093;50.014;19.984;2022-09-30T08:30:23;14.85;;;10.15;;
67164;SDS011;54093;50.014;19.984;2022-09-30T08:39:44;17.98;;;11.40;;
67164;SDS011;54093;50.014;19.984;2022-09-30T08:49:16;19.48;;;11.48;;
67164;SDS011;54093;50.014;19.984;2022-09-30T08:58:47;27.65;;;15.57;;
67164;SDS011;54093;50.014;19.984;2022-09-30T09:27:56;21.63;;;13.75;;
67164;SDS011;54093;50.014;19.984;2022-09-30T09:47:40;21.15;;;10.57;;
67164;SDS011;54093;50.014;19.984;2022-09-30T09:57:07;16.40;;;10.27;;
67164;SDS011;54093;50.014;19.984;2022-09-30T10:06:33;19.73;;;11.00;;
67164;SDS011;54093;50.014;19.984;2022-09-30T10:16:03;14.93;;;10.52;;
67164;SDS011;54093;50.014;19.984;2022-09-30T10:25:24;16.90;;;10.25;;
67164;SDS011;54093;50.014;19.984;2022-09-30T10:34:45;13.52;;;8.68;;
67164;SDS011;54093;50.014;19.984;2022-09-30T10:44:15;9.70;;;7.40;;
67164;SDS011;54093;50.014;19.984;2022-09-30T10:53:37;9.73;;;8.23;;
67164;SDS011;54093;50.014;19.984;2022-09-30T11:12:40;9.27;;;7.43;;
67164;SDS011;54093;50.014;19.984;2022-09-30T11:31:46;7.93;;;6.63;;
67164;SDS011;54093;50.014;19.984;2022-09-30T12:01:21;10.02;;;7.97;;
67164;SDS011;54093;50.014;19.984;2022-09-30T12:10:51;12.82;;;8.82;;
67164;SDS011;54093;50.014;19.984;2022-09-30T12:20:21;12.88;;;9.68;;
67164;SDS011;54093;50.014;19.984;2022-09-30T12:29:48;8.68;;;7.22;;
67164;SDS011;54093;50.014;19.984;2022-09-30T12:49:10;7.15;;;6.00;;
67164;SDS011;54093;50.014;19.984;2022-09-30T12:58:36;8.57;;;7.03;;
67164;SDS011;54093;50.014;19.984;2022-09-30T13:17:26;6.60;;;5.60;;
67164;SDS011;54093;50.014;19.984;2022-09-30T13:26:54;5.50;;;5.10;;
67164;SDS011;54093;50.014;19.984;2022-09-30T13:45:57;6.65;;;5.90;;
67164;SDS011;54093;50.014;19.984;2022-09-30T13:55:35;5.00;;;4.70;;
67164;SDS011;54093;50.014;19.984;2022-09-30T14:24:26;3.50;;;3.30;;
67164;SDS011;54093;50.014;19.984;2022-09-30T14:33:49;3.58;;;3.38;;
67164;SDS011;54093;50.014;19.984;2022-09-30T14:43:12;3.15;;;2.95;;
67164;SDS011;54093;50.014;19.984;2022-09-30T14:52:45;2.92;;;2.80;;
67164;SDS011;54093;50.014;19.984;2022-09-30T15:02:16;3.30;;;3.10;;
67164;SDS011;54093;50.014;19.984;2022-09-30T15:11:40;3.03;;;2.83;;
67164;SDS011;54093;50.014;19.984;2022-09-30T15:21:19;3.22;;;2.92;;
67164;SDS011;54093;50.014;19.984;2022-09-30T15:30:41;2.92;;;2.78;;
67164;SDS011;54093;50.014;19.984;2022-09-30T15:40:02;3.10;;;3.00;;
67164;SDS011;54093;50.014;19.984;2022-09-30T15:49:50;3.10;;;2.90;;
67164;SDS011;54093;50.014;19.984;2022-09-30T15:59:12;3.15;;;2.88;;
67164;SDS011;54093;50.014;19.984;2022-09-30T16:08:37;6.82;;;3.40;;
67164;SDS011;54093;50.014;19.984;2022-09-30T16:18:04;3.85;;;3.60;;
67164;SDS011;54093;50.014;19.984;2022-09-30T16:27:25;4.40;;;4.13;;
67164;SDS011;54093;50.014;19.984;2022-09-30T16:36:49;4.80;;;4.50;;
67164;SDS011;54093;50.014;19.984;2022-09-30T16:46:12;5.10;;;4.80;;
67164;SDS011;54093;50.014;19.984;2022-09-30T16:55:32;4.65;;;4.25;;
67164;SDS011;54093;50.014;19.984;2022-09-30T17:04:53;4.53;;;4.20;;
67164;SDS011;54093;50.014;19.984;2022-09-30T17:14:14;6.35;;;4.50;;
67164;SDS011;54093;50.014;19.984;2022-09-30T17:23:36;5.57;;;5.10;;
67164;SDS011;54093;50.014;19.984;2022-09-30T17:32:57;6.15;;;5.50;;
67164;SDS011;54093;50.014;19.984;2022-09-30T17:42:18;4.93;;;4.53;;
67164;SDS011;54093;50.014;19.984;2022-09-30T17:51:57;5.65;;;5.25;;
67164;SDS011;54093;50.014;19.984;2022-09-30T18:01:19;8.75;;;7.45;;
67164;SDS011;54093;50.014;19.984;2022-09-30T18:10:43;6.68;;;6.18;;
67164;SDS011;54093;50.014;19.984;2022-09-30T18:20:04;6.70;;;6.20;;
67164;SDS011;54093;50.014;19.984;2022-09-30T18:29:25;5.72;;;5.18;;
67164;SDS011;54093;50.014;19.984;2022-09-30T18:38:46;5.78;;;5.30;;
67164;SDS011;54093;50.014;19.984;2022-09-30T18:48:09;6.28;;;5.78;;
67164;SDS011;54093;50.014;19.984;2022-09-30T18:57:34;6.47;;;5.82;;
67164;SDS011;54093;50.014;19.984;2022-09-30T19:06:55;6.95;;;6.40;;
67164;SDS011;54093;50.014;19.984;2022-09-30T19:16:15;6.90;;;6.18;;
67164;SDS011;54093;50.014;19.984;2022-09-30T19:25:39;5.60;;;5.20;;
67164;SDS011;54093;50.014;19.984;2022-09-30T19:35:01;7.50;;;5.95;;
67164;SDS011;54093;50.014;19.984;2022-09-30T19:44:25;5.93;;;5.43;;
67164;SDS011;54093;50.014;19.984;2022-09-30T19:53:47;6.38;;;5.45;;
67164;SDS011;54093;50.014;19.984;2022-09-30T20:03:08;6.93;;;6.32;;
67164;SDS011;54093;50.014;19.984;2022-09-30T20:12:33;8.37;;;7.67;;
67164;SDS011;54093;50.014;19.984;2022-09-30T20:21:54;10.05;;;9.05;;
67164;SDS011;54093;50.014;19.984;2022-09-30T20:31:15;11.25;;;9.43;;
67164;SDS011;54093;50.014;19.984;2022-09-30T20:40:36;14.65;;;11.70;;
67164;SDS011;54093;50.014;19.984;2022-09-30T20:49:57;17.63;;;12.50;;
67164;SDS011;54093;50.014;19.984;2022-09-30T20:59:18;20.35;;;12.52;;
67164;SDS011;54093;50.014;19.984;2022-09-30T21:08:39;16.63;;;12.50;;
67164;SDS011;54093;50.014;19.984;2022-09-30T21:18:02;17.02;;;11.85;;
67164;SDS011;54093;50.014;19.984;2022-09-30T21:27:23;18.05;;;11.23;;
67164;SDS011;54093;50.014;19.984;2022-09-30T21:36:44;17.58;;;11.82;;
67164;SDS011;54093;50.014;19.984;2022-09-30T21:46:06;13.10;;;10.82;;
67164;SDS011;54093;50.014;19.984;2022-09-30T21:55:31;17.38;;;10.32;;
67164;SDS011;54093;50.014;19.984;2022-09-30T22:04:57;12.77;;;9.75;;
67164;SDS011;54093;50.014;19.984;2022-09-30T22:14:18;11.68;;;10.18;;
67164;SDS011;54093;50.014;19.984;2022-09-30T22:23:39;12.85;;;10.95;;
67164;SDS011;54093;50.014;19.984;2022-09-30T22:33:00;18.55;;;10.95;;
67164;SDS011;54093;50.014;19.984;2022-09-30T22:42:39;15.65;;;11.82;;
67164;SDS011;54093;50.014;19.984;2022-09-30T22:52:00;15.20;;;11.10;;
67164;SDS011;54093;50.014;19.984;2022-09-30T23:01:23;17.02;;;13.00;;
67164;SDS011;54093;50.014;19.984;2022-09-30T23:10:44;18.52;;;12.73;;
67164;SDS011;54093;50.014;19.984;2022-09-30T23:20:11;20.20;;;12.88;;
67164;SDS011;54093;50.014;19.984;2022-09-30T23:29:32;19.98;;;13.45;;
67164;SDS011;54093;50.014;19.984;2022-09-30T23:39:26;21.08;;;12.73;;
67164;SDS011;54093;50.014;19.984;2022-09-30T23:48:41;19.02;;;14.25;;
67164;SDS011;54093;50.014;19.984;2022-09-30T23:58:04;21.38;;;13.43;;
